sensor_id;sensor_type;location;lat;lon;timestamp;pressure;altitude;pressure_sealevel;temperature;humidity
3844;BME280;1937;51.444;6.484;2024-02-14T00:00:40;68510.22;;;8.49;95.66
3844;BME280;1937;51.444;6.484;2024-02-14T00:03:09;68560.34;;;8.61;94.55
3844;BME280;1937;51.444;6.484;2024-02-14T00:05:35;68583.84;;;8.57;95.11
3844;BME280;1937;51.444;6.484;2024-02-14T00:08:02;68613.06;;;8.60;94.36
3844;BME280;1937;51.444;6.484;2024-02-14T00:10:32;68816.44;;;8.68;93.83
3844;BME280;1937;51.444;6.484;2024-02-14T00:12:59;68672.09;;;8.74;93.81
3844;BME280;1937;51.444;6.484;2024-02-14T00:15:27;68613.88;;;8.59;93.77
3844;BME280;1937;51.444;6.484;2024-02-14T00:17:55;68702.88;;;8.67;93.70
3844;BME280;1937;51.444;6.484;2024-02-14T00:20:22;68662.81;;;8.63;93.57
3844;BME280;1937;51.444;6.484;2024-02-14T00:22:49;68733.50;;;8.76;93.16
3844;BME280;1937;51.444;6.484;2024-02-14T00:25:16;68706.06;;;8.74;93.23
3844;BME280;1937;51.444;6.484;2024-02-14T00:27:43;68725.38;;;8.60;94.52
3844;BME280;1937;51.444;6.484;2024-02-14T00:30:10;68807.53;;;8.67;94.41
3844;BME280;1937;51.444;6.484;2024-02-14T00:32:36;68819.00;;;8.74;94.98
3844;BME280;1937;51.444;6.484;2024-02-14T00:35:04;68861.09;;;8.84;94.18
3844;BME280;1937;51.444;6.484;2024-02-14T00:37:31;68838.56;;;8.84;93.85
3844;BME280;1937;51.444;6.484;2024-02-14T00:39:58;68844.69;;;8.74;93.27
3844;BME280;1937;51.444;6.484;2024-02-14T00:42:25;68832.47;;;8.81;94.19
3844;BME280;1937;51.444;6.484;2024-02-14T00:44:52;68933.34;;;8.73;93.18
3844;BME280;1937;51.444;6.484;2024-02-14T00:47:19;68923.16;;;8.93;94.12
3844;BME280;1937;51.444;6.484;2024-02-14T00:49:46;68900.03;;;8.86;94.18
3844;BME280;1937;51.444;6.484;2024-02-14T00:52:14;68936.19;;;8.97;93.59
3844;BME280;1937;51.444;6.484;2024-02-14T00:54:42;68913.09;;;8.97;93.84
3844;BME280;1937;51.444;6.484;2024-02-14T00:57:08;68925.84;;;8.71;94.00
3844;BME280;1937;51.444;6.484;2024-02-14T00:59:35;68953.38;;;8.92;94.54
3844;BME280;1937;51.444;6.484;2024-02-14T01:02:02;68971.97;;;8.99;94.55
3844;BME280;1937;51.444;6.484;2024-02-14T01:04:28;68955.72;;;8.88;94.72
3844;BME280;1937;51.444;6.484;2024-02-14T01:06:55;69036.97;;;8.98;94.57
3844;BME280;1937;51.444;6.484;2024-02-14T01:09:23;69134.75;;;8.96;94.92
3844;BME280;1937;51.444;6.484;2024-02-14T01:11:50;69020.41;;;9.03;94.47
3844;BME280;1937;51.444;6.484;2024-02-14T01:14:16;69025.16;;;9.08;93.83
3844;BME280;1937;51.444;6.484;2024-02-14T01:16:43;69060.34;;;9.09;93.33
3844;BME280;1937;51.444;6.484;2024-02-14T01:19:10;68959.09;;;8.93;93.62
3844;BME280;1937;51.444;6.484;2024-02-14T01:21:37;69093.22;;;9.22;93.00
3844;BME280;1937;51.444;6.484;2024-02-14T01:24:04;69102.78;;;9.36;92.70
3844;BME280;1937;51.444;6.484;2024-02-14T01:26:34;69088.53;;;9.37;92.50
3844;BME280;1937;51.444;6.484;2024-02-14T01:29:01;69121.03;;;9.48;91.68
3844;BME280;1937;51.444;6.484;2024-02-14T01:31:28;69047.44;;;9.44;91.71
3844;BME280;1937;51.444;6.484;2024-02-14T01:33:55;69104.66;;;9.58;91.29
3844;BME280;1937;51.444;6.484;2024-02-14T01:36:25;69045.88;;;9.40;90.57
3844;BME280;1937;51.444;6.484;2024-02-14T01:38:52;69073.56;;;9.47;91.50
3844;BME280;1937;51.444;6.484;2024-02-14T01:41:18;69063.66;;;9.42;91.33
3844;BME280;1937;51.444;6.484;2024-02-14T01:43:48;69069.41;;;9.50;91.45
3844;BME280;1937;51.444;6.484;2024-02-14T01:46:14;69203.34;;;9.54;90.79
3844;BME280;1937;51.444;6.484;2024-02-14T01:48:42;69030.88;;;9.50;91.01
3844;BME280;1937;51.444;6.484;2024-02-14T01:51:11;69083.22;;;9.39;90.79
3844;BME280;1937;51.444;6.484;2024-02-14T01:53:39;69090.47;;;9.65;90.25
3844;BME280;1937;51.444;6.484;2024-02-14T01:56:07;68996.09;;;9.57;90.70
3844;BME280;1937;51.444;6.484;2024-02-14T01:58:34;69040.78;;;9.60;90.69
3844;BME280;1937;51.444;6.484;2024-02-14T02:01:04;69072.47;;;9.65;90.78
3844;BME280;1937;51.444;6.484;2024-02-14T02:03:31;69061.97;;;9.67;90.58
3844;BME280;1937;51.444;6.484;2024-02-14T02:06:01;69067.66;;;9.55;91.11
3844;BME280;1937;51.444;6.484;2024-02-14T02:08:28;69191.31;;;9.59;90.77
3844;BME280;1937;51.444;6.484;2024-02-14T02:10:54;69056.25;;;9.67;90.67
3844;BME280;1937;51.444;6.484;2024-02-14T02:13:21;69078.59;;;9.68;90.70
3844;BME280;1937;51.444;6.484;2024-02-14T02:15:48;69110.31;;;9.80;90.30
3844;BME280;1937;51.444;6.484;2024-02-14T02:18:16;69081.00;;;9.70;91.00
3844;BME280;1937;51.444;6.484;2024-02-14T02:20:43;69090.09;;;9.69;90.51
3844;BME280;1937;51.444;6.484;2024-02-14T02:23:11;69083.97;;;9.73;91.01
3844;BME280;1937;51.444;6.484;2024-02-14T02:25:40;69093.47;;;9.74;90.38
3844;BME280;1937;51.444;6.484;2024-02-14T02:28:07;69121.78;;;9.81;90.32
3844;BME280;1937;51.444;6.484;2024-02-14T02:30:34;69055.06;;;9.72;90.57
3844;BME280;1937;51.444;6.484;2024-02-14T02:33:02;69077.03;;;9.71;90.89
3844;BME280;1937;51.444;6.484;2024-02-14T02:35:29;69168.63;;;9.40;91.10
3844;BME280;1937;51.444;6.484;2024-02-14T02:37:55;69118.56;;;9.74;90.82
3844;BME280;1937;51.444;6.484;2024-02-14T02:40:24;69109.09;;;9.79;90.78
3844;BME280;1937;51.444;6.484;2024-02-14T02:42:51;69114.44;;;9.77;90.78
3844;BME280;1937;51.444;6.484;2024-02-14T02:45:18;69153.50;;;9.93;90.46
3844;BME280;1937;51.444;6.484;2024-02-14T02:47:44;69089.28;;;9.64;90.72
3844;BME280;1937;51.444;6.484;2024-02-14T02:50:10;69159.75;;;9.80;90.79
3844;BME280;1937;51.444;6.484;2024-02-14T02:52:37;69135.06;;;9.83;90.81
3844;BME280;1937;51.444;6.484;2024-02-14T02:55:04;69169.91;;;9.96;90.71
3844;BME280;1937;51.444;6.484;2024-02-14T02:57:32;69204.53;;;9.90;91.02
3844;BME280;1937;51.444;6.484;2024-02-14T03:00:02;69153.50;;;9.93;90.64
3844;BME280;1937;51.444;6.484;2024-02-14T03:02:30;69174.66;;;9.93;90.88
3844;BME280;1937;51.444;6.484;2024-02-14T03:04:57;69177.50;;;9.69;92.38
3844;BME280;1937;51.444;6.484;2024-02-14T03:07:24;69240.88;;;9.79;93.11
3844;BME280;1937;51.444;6.484;2024-02-14T03:09:51;69416.28;;;9.73;93.32
3844;BME280;1937;51.444;6.484;2024-02-14T03:12:17;69314.47;;;9.55;94.08
3844;BME280;1937;51.444;6.484;2024-02-14T03:14:47;69340.88;;;9.68;95.41
3844;BME280;1937;51.444;6.484;2024-02-14T03:17:14;69354.22;;;9.56;95.84
3844;BME280;1937;51.444;6.484;2024-02-14T03:19:42;69359.06;;;9.44;96.62
3844;BME280;1937;51.444;6.484;2024-02-14T03:22:08;69433.31;;;9.55;96.36
3844;BME280;1937;51.444;6.484;2024-02-14T03:24:35;69458.34;;;9.63;95.97
3844;BME280;1937;51.444;6.484;2024-02-14T03:27:03;69457.91;;;9.61;96.14
3844;BME280;1937;51.444;6.484;2024-02-14T03:29:30;69422.94;;;9.64;95.95
3844;BME280;1937;51.444;6.484;2024-02-14T03:31:58;69502.81;;;9.62;96.32
3844;BME280;1937;51.444;6.484;2024-02-14T03:34:29;69611.41;;;9.62;95.88
3844;BME280;1937;51.444;6.484;2024-02-14T03:36:58;69524.84;;;9.67;96.12
3844;BME280;1937;51.444;6.484;2024-02-14T03:39:25;69553.03;;;9.76;96.34
3844;BME280;1937;51.444;6.484;2024-02-14T03:41:52;69569.34;;;9.66;96.34
3844;BME280;1937;51.444;6.484;2024-02-14T03:44:21;69581.16;;;9.63;96.46
3844;BME280;1937;51.444;6.484;2024-02-14T03:46:48;69625.56;;;9.70;96.28
3844;BME280;1937;51.444;6.484;2024-02-14T03:49:16;69728.84;;;9.57;95.77
3844;BME280;1937;51.444;6.484;2024-02-14T03:51:43;69684.56;;;9.72;96.10
3844;BME280;1937;51.444;6.484;2024-02-14T03:54:09;69641.69;;;9.77;95.87
3844;BME280;1937;51.444;6.484;2024-02-14T03:56:37;69633.44;;;9.83;95.76
3844;BME280;1937;51.444;6.484;2024-02-14T03:59:03;69654.88;;;9.88;95.18
3844;BME280;1937;51.444;6.484;2024-02-14T04:01:33;69625.03;;;9.91;95.16
3844;BME280;1937;51.444;6.484;2024-02-14T04:04:00;69615.78;;;9.79;95.27
3844;BME280;1937;51.444;6.484;2024-02-14T04:06:29;69656.59;;;9.98;94.40
3844;BME280;1937;51.444;6.484;2024-02-14T04:08:57;69634.63;;;9.99;94.29
3844;BME280;1937;51.444;6.484;2024-02-14T04:11:24;69583.03;;;9.86;94.66
3844;BME280;1937;51.444;6.484;2024-02-14T04:13:51;69651.34;;;10.07;94.79
3844;BME280;1937;51.444;6.484;2024-02-14T04:16:19;69664.22;;;10.07;94.55
3844;BME280;1937;51.444;6.484;2024-02-14T04:18:46;69657.09;;;9.92;95.81
3844;BME280;1937;51.444;6.484;2024-02-14T04:21:13;69700.31;;;9.98;95.54
3844;BME280;1937;51.444;6.484;2024-02-14T04:23:41;69671.00;;;9.95;96.06
3844;BME280;1937;51.444;6.484;2024-02-14T04:26:08;69714.13;;;9.95;95.89
3844;BME280;1937;51.444;6.484;2024-02-14T04:28:34;69719.28;;;9.95;96.05
3844;BME280;1937;51.444;6.484;2024-02-14T04:31:01;69712.25;;;9.86;96.43
3844;BME280;1937;51.444;6.484;2024-02-14T04:33:28;69815.41;;;9.91;96.07
3844;BME280;1937;51.444;6.484;2024-02-14T04:35:55;69781.09;;;9.86;96.50
3844;BME280;1937;51.444;6.484;2024-02-14T04:38:22;69831.06;;;10.04;95.83
3844;BME280;1937;51.444;6.484;2024-02-14T04:40:50;69704.19;;;9.75;95.79
3844;BME280;1937;51.444;6.484;2024-02-14T04:43:17;69804.97;;;10.08;95.68
3844;BME280;1937;51.444;6.484;2024-02-14T04:45:44;69799.50;;;10.12;95.00
3844;BME280;1937;51.444;6.484;2024-02-14T04:48:12;69768.34;;;10.08;95.39
3844;BME280;1937;51.444;6.484;2024-02-14T04:50:39;69781.13;;;10.01;95.99
3844;BME280;1937;51.444;6.484;2024-02-14T04:53:05;69806.44;;;10.14;95.12
3844;BME280;1937;51.444;6.484;2024-02-14T04:55:32;69809.25;;;10.03;95.23
3844;BME280;1937;51.444;6.484;2024-02-14T04:58:00;69763.47;;;10.12;94.37
3844;BME280;1937;51.444;6.484;2024-02-14T05:00:27;69761.06;;;10.10;95.07
3844;BME280;1937;51.444;6.484;2024-02-14T05:02:54;69739.16;;;9.88;95.36
3844;BME280;1937;51.444;6.484;2024-02-14T05:05:21;69789.38;;;10.10;95.29
3844;BME280;1937;51.444;6.484;2024-02-14T05:07:47;69808.84;;;10.16;95.13
3844;BME280;1937;51.444;6.484;2024-02-14T05:10:14;69861.78;;;10.06;96.34
3844;BME280;1937;51.444;6.484;2024-02-14T05:12:41;69827.09;;;10.05;96.13
3844;BME280;1937;51.444;6.484;2024-02-14T05:15:10;69930.13;;;10.20;95.49
3844;BME280;1937;51.444;6.484;2024-02-14T05:17:37;69892.28;;;10.19;95.83
3844;BME280;1937;51.444;6.484;2024-02-14T05:20:05;69890.41;;;10.02;96.26
3844;BME280;1937;51.444;6.484;2024-02-14T05:22:35;69977.50;;;10.23;96.36
3844;BME280;1937;51.444;6.484;2024-02-14T05:25:02;69950.41;;;10.16;96.23
3844;BME280;1937;51.444;6.484;2024-02-14T05:27:29;69971.09;;;10.31;95.49
3844;BME280;1937;51.444;6.484;2024-02-14T05:29:56;69949.19;;;10.23;95.84
3844;BME280;1937;51.444;6.484;2024-02-14T05:32:24;69945.81;;;10.25;95.75
3844;BME280;1937;51.444;6.484;2024-02-14T05:34:51;69999.25;;;10.33;95.71
3844;BME280;1937;51.444;6.484;2024-02-14T05:37:17;69955.25;;;10.20;96.39
3844;BME280;1937;51.444;6.484;2024-02-14T05:39:45;69993.72;;;10.22;96.43
3844;BME280;1937;51.444;6.484;2024-02-14T05:42:12;70023.56;;;10.19;97.45
3844;BME280;1937;51.444;6.484;2024-02-14T05:44:38;70051.09;;;10.20;97.18
3844;BME280;1937;51.444;6.484;2024-02-14T05:47:05;70052.59;;;10.26;97.40
3844;BME280;1937;51.444;6.484;2024-02-14T05:49:34;70077.78;;;10.17;97.81
3844;BME280;1937;51.444;6.484;2024-02-14T05:52:00;70122.28;;;10.24;98.01
3844;BME280;1937;51.444;6.484;2024-02-14T05:54:27;70131.06;;;10.10;98.64
3844;BME280;1937;51.444;6.484;2024-02-14T05:56:54;70136.81;;;10.10;99.03
3844;BME280;1937;51.444;6.484;2024-02-14T05:59:23;70199.84;;;9.94;100.00
3844;BME280;1937;51.444;6.484;2024-02-14T06:01:49;70305.19;;;9.88;100.00
3844;BME280;1937;51.444;6.484;2024-02-14T06:04:16;70409.50;;;10.04;100.00
3844;BME280;1937;51.444;6.484;2024-02-14T06:06:44;70607.34;;;9.99;100.00
3844;BME280;1937;51.444;6.484;2024-02-14T06:09:11;70438.28;;;10.06;100.00
3844;BME280;1937;51.444;6.484;2024-02-14T06:11:38;70489.41;;;9.93;100.00
3844;BME280;1937;51.444;6.484;2024-02-14T06:14:04;70523.00;;;9.91;100.00
3844;BME280;1937;51.444;6.484;2024-02-14T06:16:32;70605.72;;;10.04;100.00
3844;BME280;1937;51.444;6.484;2024-02-14T06:18:59;70631.50;;;10.13;100.00
3844;BME280;1937;51.444;6.484;2024-02-14T06:21:26;70564.06;;;10.02;100.00
3844;BME280;1937;51.444;6.484;2024-02-14T06:23:54;70543.44;;;9.93;100.00
3844;BME280;1937;51.444;6.484;2024-02-14T06:26:20;70616.28;;;9.72;100.00
3844;BME280;1937;51.444;6.484;2024-02-14T06:28:47;70697.97;;;9.91;100.00
3844;BME280;1937;51.444;6.484;2024-02-14T06:31:19;70775.13;;;10.02;100.00
3844;BME280;1937;51.444;6.484;2024-02-14T06:33:46;70753.25;;;9.92;100.00
3844;BME280;1937;51.444;6.484;2024-02-14T06:36:12;70853.13;;;10.19;100.00
3844;BME280;1937;51.444;6.484;2024-02-14T06:38:39;70739.69;;;10.02;100.00
3844;BME280;1937;51.444;6.484;2024-02-14T06:41:07;70789.22;;;10.03;100.00
3844;BME280;1937;51.444;6.484;2024-02-14T06:43:34;70881.53;;;9.98;100.00
3844;BME280;1937;51.444;6.484;2024-02-14T06:46:01;70918.88;;;10.08;100.00
3844;BME280;1937;51.444;6.484;2024-02-14T06:48:28;71091.34;;;10.08;100.00
3844;BME280;1937;51.444;6.484;2024-02-14T06:50:55;70906.03;;;9.97;100.00
3844;BME280;1937;51.444;6.484;2024-02-14T06:53:22;70986.56;;;10.06;100.00
3844;BME280;1937;51.444;6.484;2024-02-14T06:55:48;70974.97;;;10.16;100.00
3844;BME280;1937;51.444;6.484;2024-02-14T06:58:16;70940.59;;;10.00;100.00
3844;BME280;1937;51.444;6.484;2024-02-14T07:00:43;71041.44;;;10.13;100.00
3844;BME280;1937;51.444;6.484;2024-02-14T07:03:10;71046.75;;;10.01;100.00
3844;BME280;1937;51.444;6.484;2024-02-14T07:05:37;71103.09;;;10.26;100.00
3844;BME280;1937;51.444;6.484;2024-02-14T07:08:05;71025.63;;;10.19;100.00
3844;BME280;1937;51.444;6.484;2024-02-14T07:10:31;71057.50;;;10.14;100.00
3844;BME280;1937;51.444;6.484;2024-02-14T07:12:58;71048.78;;;10.19;100.00
3844;BME280;1937;51.444;6.484;2024-02-14T07:15:26;71113.94;;;10.18;100.00
3844;BME280;1937;51.444;6.484;2024-02-14T07:17:54;71040.09;;;10.14;100.00
3844;BME280;1937;51.444;6.484;2024-02-14T07:20:20;71164.81;;;10.17;100.00
3844;BME280;1937;51.444;6.484;2024-02-14T07:22:47;71168.34;;;10.12;100.00
3844;BME280;1937;51.444;6.484;2024-02-14T07:25:18;71199.16;;;10.24;100.00
3844;BME280;1937;51.444;6.484;2024-02-14T07:27:45;71202.09;;;10.18;100.00
3844;BME280;1937;51.444;6.484;2024-02-14T07:30:14;71258.50;;;10.33;100.00
3844;BME280;1937;51.444;6.484;2024-02-14T07:32:42;71208.06;;;10.25;100.00
3844;BME280;1937;51.444;6.484;2024-02-14T07:35:09;71217.41;;;10.31;100.00
3844;BME280;1937;51.444;6.484;2024-02-14T07:37:36;71290.00;;;10.44;100.00
3844;BME280;1937;51.444;6.484;2024-02-14T07:40:03;71257.03;;;10.47;100.00
3844;BME280;1937;51.444;6.484;2024-02-14T07:42:30;71138.91;;;10.41;100.00
3844;BME280;1937;51.444;6.484;2024-02-14T07:44:57;71183.91;;;10.52;100.00
3844;BME280;1937;51.444;6.484;2024-02-14T07:47:24;71188.31;;;10.64;99.69
3844;BME280;1937;51.444;6.484;2024-02-14T07:49:53;71120.06;;;10.63;98.74
3844;BME280;1937;51.444;6.484;2024-02-14T07:52:19;71060.19;;;10.63;98.64
3844;BME280;1937;51.444;6.484;2024-02-14T07:54:46;71117.50;;;10.63;99.20
3844;BME280;1937;51.444;6.484;2024-02-14T07:57:13;71062.78;;;10.63;98.73
3844;BME280;1937;51.444;6.484;2024-02-14T07:59:39;71190.97;;;10.84;98.68
3844;BME280;1937;51.444;6.484;2024-02-14T08:02:06;71092.88;;;10.86;97.84
3844;BME280;1937;51.444;6.484;2024-02-14T08:04:33;71130.88;;;10.96;97.66
3844;BME280;1937;51.444;6.484;2024-02-14T08:07:01;71061.38;;;11.04;97.28
3844;BME280;1937;51.444;6.484;2024-02-14T08:09:29;70986.72;;;10.83;97.73
3844;BME280;1937;51.444;6.484;2024-02-14T08:11:56;71046.28;;;10.98;98.00
3844;BME280;1937;51.444;6.484;2024-02-14T08:14:22;71128.50;;;11.13;97.33
3844;BME280;1937;51.444;6.484;2024-02-14T08:16:49;71064.69;;;11.03;98.14
3844;BME280;1937;51.444;6.484;2024-02-14T08:19:17;71102.34;;;11.08;97.14
3844;BME280;1937;51.444;6.484;2024-02-14T08:21:44;71036.41;;;11.12;97.38
3844;BME280;1937;51.444;6.484;2024-02-14T08:24:12;71056.44;;;11.11;96.91
3844;BME280;1937;51.444;6.484;2024-02-14T08:26:38;71103.84;;;11.05;97.37
3844;BME280;1937;51.444;6.484;2024-02-14T08:29:05;70987.53;;;10.90;97.51
3844;BME280;1937;51.444;6.484;2024-02-14T08:31:32;70905.59;;;11.01;97.47
3844;BME280;1937;51.444;6.484;2024-02-14T08:33:59;71024.94;;;11.00;97.85
3844;BME280;1937;51.444;6.484;2024-02-14T08:36:26;71035.06;;;11.13;96.58
3844;BME280;1937;51.444;6.484;2024-02-14T08:38:53;70942.03;;;11.06;96.87
3844;BME280;1937;51.444;6.484;2024-02-14T08:41:21;71054.44;;;10.92;98.08
3844;BME280;1937;51.444;6.484;2024-02-14T08:43:48;71036.59;;;10.99;97.79
3844;BME280;1937;51.444;6.484;2024-02-14T08:46:17;71111.50;;;10.97;97.61
3844;BME280;1937;51.444;6.484;2024-02-14T08:48:43;70971.13;;;11.04;96.59
3844;BME280;1937;51.444;6.484;2024-02-14T08:51:12;70962.03;;;11.05;97.10
3844;BME280;1937;51.444;6.484;2024-02-14T08:53:39;70974.31;;;11.05;96.99
3844;BME280;1937;51.444;6.484;2024-02-14T08:56:07;71098.41;;;11.09;97.48
3844;BME280;1937;51.444;6.484;2024-02-14T08:58:38;71080.59;;;11.16;97.43
3844;BME280;1937;51.444;6.484;2024-02-14T09:01:05;71081.69;;;11.38;96.13
3844;BME280;1937;51.444;6.484;2024-02-14T09:03:32;70958.16;;;11.34;96.06
3844;BME280;1937;51.444;6.484;2024-02-14T09:05:59;71045.16;;;11.25;96.82
3844;BME280;1937;51.444;6.484;2024-02-14T09:08:25;71001.78;;;11.08;97.74
3844;BME280;1937;51.444;6.484;2024-02-14T09:10:52;71012.38;;;11.04;98.44
3844;BME280;1937;51.444;6.484;2024-02-14T09:13:20;71090.06;;;11.09;98.18
3844;BME280;1937;51.444;6.484;2024-02-14T09:15:48;71142.22;;;11.20;98.42
3844;BME280;1937;51.444;6.484;2024-02-14T09:18:15;71117.09;;;11.10;98.65
3844;BME280;1937;51.444;6.484;2024-02-14T09:20:44;71162.47;;;11.26;97.29
3844;BME280;1937;51.444;6.484;2024-02-14T09:23:12;71164.31;;;11.28;97.97
3844;BME280;1937;51.444;6.484;2024-02-14T09:25:39;71063.16;;;11.36;96.65
3844;BME280;1937;51.444;6.484;2024-02-14T09:28:07;71137.84;;;11.38;96.81
3844;BME280;1937;51.444;6.484;2024-02-14T09:30:34;71122.59;;;11.64;95.09
3844;BME280;1937;51.444;6.484;2024-02-14T09:33:05;71069.44;;;11.77;94.34
3844;BME280;1937;51.444;6.484;2024-02-14T09:35:31;70876.59;;;11.76;93.10
3844;BME280;1937;51.444;6.484;2024-02-14T09:37:58;70915.50;;;11.82;93.39
3844;BME280;1937;51.444;6.484;2024-02-14T09:40:25;70801.78;;;11.93;92.26
3844;BME280;1937;51.444;6.484;2024-02-14T09:42:54;70934.38;;;11.89;92.07
3844;BME280;1937;51.444;6.484;2024-02-14T09:45:22;70767.00;;;11.83;92.47
3844;BME280;1937;51.444;6.484;2024-02-14T09:47:51;70688.59;;;11.78;91.65
3844;BME280;1937;51.444;6.484;2024-02-14T09:50:21;70743.91;;;11.81;92.23
3844;BME280;1937;51.444;6.484;2024-02-14T09:52:47;70718.25;;;11.97;92.00
3844;BME280;1937;51.444;6.484;2024-02-14T09:55:15;70715.53;;;12.07;90.90
3844;BME280;1937;51.444;6.484;2024-02-14T09:57:43;70687.28;;;12.05;92.02
3844;BME280;1937;51.444;6.484;2024-02-14T10:00:10;70689.84;;;11.88;92.80
3844;BME280;1937;51.444;6.484;2024-02-14T10:02:40;70706.25;;;12.02;91.94
3844;BME280;1937;51.444;6.484;2024-02-14T10:05:07;70653.56;;;11.99;92.24
3844;BME280;1937;51.444;6.484;2024-02-14T10:07:41;70564.53;;;12.15;90.67
3844;BME280;1937;51.444;6.484;2024-02-14T10:10:08;70622.09;;;12.22;89.84
3844;BME280;1937;51.444;6.484;2024-02-14T10:12:35;70553.91;;;12.19;89.44
3844;BME280;1937;51.444;6.484;2024-02-14T10:15:02;70526.84;;;12.09;91.25
3844;BME280;1937;51.444;6.484;2024-02-14T10:17:30;70634.25;;;12.15;91.70
3844;BME280;1937;51.444;6.484;2024-02-14T10:19:57;70581.72;;;12.01;92.74
3844;BME280;1937;51.444;6.484;2024-02-14T10:22:24;70585.53;;;11.76;93.56
3844;BME280;1937;51.444;6.484;2024-02-14T10:24:53;70691.06;;;11.89;94.38
3844;BME280;1937;51.444;6.484;2024-02-14T10:27:21;70702.28;;;11.85;94.66
3844;BME280;1937;51.444;6.484;2024-02-14T10:29:47;70829.28;;;11.97;94.83
3844;BME280;1937;51.444;6.484;2024-02-14T10:32:15;70905.53;;;11.96;95.18
3844;BME280;1937;51.444;6.484;2024-02-14T10:34:43;70902.56;;;12.10;94.50
3844;BME280;1937;51.444;6.484;2024-02-14T10:37:13;71040.53;;;12.41;94.22
3844;BME280;1937;51.444;6.484;2024-02-14T10:39:42;71083.97;;;12.66;92.53
3844;BME280;1937;51.444;6.484;2024-02-14T10:42:12;71027.97;;;12.54;92.26
3844;BME280;1937;51.444;6.484;2024-02-14T10:44:39;70922.50;;;12.65;92.18
3844;BME280;1937;51.444;6.484;2024-02-14T10:47:07;71107.25;;;12.94;91.98
3844;BME280;1937;51.444;6.484;2024-02-14T10:49:37;71040.50;;;13.05;90.79
3844;BME280;1937;51.444;6.484;2024-02-14T10:52:07;70935.38;;;13.10;90.13
3844;BME280;1937;51.444;6.484;2024-02-14T10:54:35;70886.09;;;13.13;89.35
3844;BME280;1937;51.444;6.484;2024-02-14T10:57:05;70778.03;;;12.96;90.10
3844;BME280;1937;51.444;6.484;2024-02-14T10:59:43;70732.72;;;12.80;90.81
3844;BME280;1937;51.444;6.484;2024-02-14T11:02:10;70714.47;;;12.82;90.33
3844;BME280;1937;51.444;6.484;2024-02-14T11:04:37;70741.84;;;12.96;89.95
3844;BME280;1937;51.444;6.484;2024-02-14T11:07:09;70678.84;;;12.91;89.76
3844;BME280;1937;51.444;6.484;2024-02-14T11:09:36;70655.16;;;12.80;89.63
3844;BME280;1937;51.444;6.484;2024-02-14T11:12:04;70644.34;;;12.86;89.52
3844;BME280;1937;51.444;6.484;2024-02-14T11:14:34;70748.53;;;12.93;89.09
3844;BME280;1937;51.444;6.484;2024-02-14T11:17:04;70569.38;;;12.77;89.14
3844;BME280;1937;51.444;6.484;2024-02-14T11:19:34;70593.88;;;12.69;89.75
3844;BME280;1937;51.444;6.484;2024-02-14T11:22:10;70544.59;;;12.80;89.80
3844;BME280;1937;51.444;6.484;2024-02-14T11:24:38;70586.47;;;12.65;90.63
3844;BME280;1937;51.444;6.484;2024-02-14T11:27:09;70585.19;;;12.73;90.45
3844;BME280;1937;51.444;6.484;2024-02-14T11:29:38;70574.16;;;12.66;90.73
3844;BME280;1937;51.444;6.484;2024-02-14T11:32:07;70504.63;;;12.70;91.20
3844;BME280;1937;51.444;6.484;2024-02-14T11:34:35;70679.63;;;12.89;90.30
3844;BME280;1937;51.444;6.484;2024-02-14T11:37:02;70646.72;;;13.05;89.65
3844;BME280;1937;51.444;6.484;2024-02-14T11:39:30;70743.19;;;13.21;89.29
3844;BME280;1937;51.444;6.484;2024-02-14T11:41:58;70677.25;;;13.37;88.14
3844;BME280;1937;51.444;6.484;2024-02-14T11:44:25;70716.44;;;13.57;87.78
3844;BME280;1937;51.444;6.484;2024-02-14T11:46:52;70653.22;;;13.62;87.50
3844;BME280;1937;51.444;6.484;2024-02-14T11:49:20;70722.34;;;13.72;87.00
3844;BME280;1937;51.444;6.484;2024-02-14T11:51:48;70651.59;;;13.50;88.14
3844;BME280;1937;51.444;6.484;2024-02-14T11:54:14;70726.09;;;13.41;90.14
3844;BME280;1937;51.444;6.484;2024-02-14T11:56:42;70709.53;;;13.29;89.76
3844;BME280;1937;51.444;6.484;2024-02-14T11:59:09;70680.66;;;13.18;90.11
3844;BME280;1937;51.444;6.484;2024-02-14T12:01:38;70710.19;;;13.13;90.75
3844;BME280;1937;51.444;6.484;2024-02-14T12:04:05;70691.91;;;13.06;91.57
3844;BME280;1937;51.444;6.484;2024-02-14T12:06:35;70675.19;;;12.96;91.33
3844;BME280;1937;51.444;6.484;2024-02-14T12:09:04;70941.44;;;13.07;90.48
3844;BME280;1937;51.444;6.484;2024-02-14T12:11:32;70819.13;;;13.00;91.18
3844;BME280;1937;51.444;6.484;2024-02-14T12:14:01;70745.47;;;13.07;91.23
3844;BME280;1937;51.444;6.484;2024-02-14T12:16:29;70868.00;;;13.30;91.93
3844;BME280;1937;51.444;6.484;2024-02-14T12:19:03;70892.91;;;13.07;93.52
3844;BME280;1937;51.444;6.484;2024-02-14T12:21:34;70934.41;;;12.88;95.01
3844;BME280;1937;51.444;6.484;2024-02-14T12:24:02;71164.16;;;12.94;94.99
3844;BME280;1937;51.444;6.484;2024-02-14T12:26:30;71156.84;;;13.16;95.27
3844;BME280;1937;51.444;6.484;2024-02-14T12:28:57;71172.50;;;13.14;94.93
3844;BME280;1937;51.444;6.484;2024-02-14T12:31:24;71272.03;;;13.15;95.50
3844;BME280;1937;51.444;6.484;2024-02-14T12:33:52;71139.78;;;12.91;94.81
3844;BME280;1937;51.444;6.484;2024-02-14T12:36:20;71173.47;;;13.00;95.15
3844;BME280;1937;51.444;6.484;2024-02-14T12:38:49;71193.78;;;12.87;95.75
3844;BME280;1937;51.444;6.484;2024-02-14T12:41:17;71113.56;;;12.78;96.22
3844;BME280;1937;51.444;6.484;2024-02-14T12:43:44;71241.88;;;12.73;96.61
3844;BME280;1937;51.444;6.484;2024-02-14T12:46:10;71217.75;;;12.77;95.80
3844;BME280;1937;51.444;6.484;2024-02-14T12:48:37;71252.72;;;12.76;96.68
3844;BME280;1937;51.444;6.484;2024-02-14T12:51:04;71213.78;;;12.78;96.29
3844;BME280;1937;51.444;6.484;2024-02-14T12:53:31;71269.72;;;12.92;95.24
3844;BME280;1937;51.444;6.484;2024-02-14T12:55:59;71301.00;;;12.68;94.58
3844;BME280;1937;51.444;6.484;2024-02-14T12:58:26;71212.63;;;12.85;94.84
3844;BME280;1937;51.444;6.484;2024-02-14T13:00:53;71310.69;;;12.98;94.92
3844;BME280;1937;51.444;6.484;2024-02-14T13:03:19;71131.16;;;12.95;93.19
3844;BME280;1937;51.444;6.484;2024-02-14T13:05:46;71085.84;;;13.04;93.28
3844;BME280;1937;51.444;6.484;2024-02-14T13:08:13;71161.47;;;13.05;93.33
3844;BME280;1937;51.444;6.484;2024-02-14T13:10:42;71169.34;;;13.22;92.43
3844;BME280;1937;51.444;6.484;2024-02-14T13:13:10;71055.94;;;13.16;92.59
3844;BME280;1937;51.444;6.484;2024-02-14T13:15:37;71030.78;;;13.06;93.10
3844;BME280;1937;51.444;6.484;2024-02-14T13:18:04;71088.56;;;13.30;91.80
3844;BME280;1937;51.444;6.484;2024-02-14T13:20:30;71013.88;;;13.07;92.27
3844;BME280;1937;51.444;6.484;2024-02-14T13:22:57;70951.63;;;13.09;92.21
3844;BME280;1937;51.444;6.484;2024-02-14T13:25:24;70825.50;;;12.92;92.08